createdAt,value
2023-01-13T00:01:49.385Z,10.90
2023-01-13T00:04:21.205Z,11.10
2023-01-13T00:06:49.724Z,11.20
2023-01-13T00:09:17.768Z,11.20
2023-01-13T00:11:45.932Z,11.10
2023-01-13T00:14:14.254Z,11.10
2023-01-13T00:16:44.672Z,11.10
2023-01-13T00:19:15.804Z,11.00
2023-01-13T00:21:45.342Z,10.90
2023-01-13T00:24:16.252Z,11.00
2023-01-13T00:26:50.538Z,11.00
2023-01-13T00:29:30.628Z,10.80
2023-01-13T00:31:58.838Z,11.00
2023-01-13T00:34:29.994Z,11.00
2023-01-13T00:36:59.607Z,11.10
2023-01-13T00:39:29.499Z,11.00
2023-01-13T00:42:16.115Z,11.00
2023-01-13T00:44:45.256Z,11.00
2023-01-13T00:47:13.370Z,10.90
2023-01-13T00:49:41.558Z,10.90
2023-01-13T00:52:11.561Z,10.90
2023-01-13T00:54:47.071Z,11.00
2023-01-13T00:57:16.127Z,10.90
2023-01-13T00:59:44.289Z,11.10
2023-01-13T01:02:12.798Z,11.20
2023-01-13T01:04:41.880Z,11.20
2023-01-13T01:07:19.611Z,11.20
2023-01-13T01:09:48.318Z,11.30
2023-01-13T01:12:18.715Z,11.20
2023-01-13T01:14:52.132Z,11.00
2023-01-13T01:17:20.311Z,11.20
2023-01-13T01:19:48.403Z,11.20
2023-01-13T01:22:18.989Z,11.20
2023-01-13T01:24:50.767Z,10.90
2023-01-13T01:27:27.072Z,10.90
2023-01-13T01:29:55.778Z,11.00
2023-01-13T01:32:25.430Z,11.00
2023-01-13T01:34:53.555Z,11.00
2023-01-13T01:37:25.895Z,10.80
2023-01-13T01:39:54.473Z,10.90
2023-01-13T01:42:41.126Z,11.10
2023-01-13T01:45:18.798Z,11.10
2023-01-13T01:47:49.331Z,11.00
2023-01-13T01:50:19.716Z,11.10
2023-01-13T01:52:55.068Z,10.80
2023-01-13T01:55:30.449Z,10.80
2023-01-13T01:58:03.293Z,10.90
2023-01-13T02:00:38.746Z,10.80
2023-01-13T02:03:08.648Z,10.80
2023-01-13T02:05:39.300Z,10.90
2023-01-13T02:08:10.805Z,10.90
2023-01-13T02:10:41.069Z,10.90
2023-01-13T02:13:12.296Z,10.80
2023-01-13T02:15:52.040Z,10.90
2023-01-13T02:18:39.802Z,10.90
2023-01-13T02:21:41.469Z,11.10
2023-01-13T02:25:00.384Z,10.80
2023-01-13T02:27:54.145Z,11.00
2023-01-13T02:31:04.886Z,11.00
2023-01-13T02:33:50.524Z,11.10
2023-01-13T02:36:28.398Z,11.00
2023-01-13T02:39:04.057Z,11.00
2023-01-13T02:42:00.064Z,11.00
2023-01-13T02:44:37.465Z,11.10
2023-01-13T02:47:23.489Z,11.10
2023-01-13T02:49:57.306Z,11.00
2023-01-13T02:52:30.988Z,10.90
2023-01-13T02:55:05.552Z,11.10
2023-01-13T02:57:36.609Z,11.10
2023-01-13T03:00:08.101Z,11.20
2023-01-13T03:02:40.862Z,11.20
2023-01-13T03:05:14.539Z,10.90
2023-01-13T03:08:17.728Z,10.80
2023-01-13T03:10:58.155Z,10.70
2023-01-13T03:13:48.050Z,10.60
2023-01-13T03:16:24.726Z,10.60
2023-01-13T03:19:06.045Z,10.50
2023-01-13T03:21:44.112Z,10.60
2023-01-13T03:24:18.192Z,10.50
2023-01-13T03:26:50.124Z,10.30
2023-01-13T03:29:22.814Z,10.40
2023-01-13T03:31:57.918Z,10.50
2023-01-13T03:34:34.102Z,10.40
2023-01-13T03:37:07.027Z,10.30
2023-01-13T03:39:39.439Z,10.50
2023-01-13T03:42:13.057Z,10.20
2023-01-13T03:44:44.106Z,10.10
2023-01-13T03:47:22.204Z,10.30
2023-01-13T03:49:55.795Z,10.20
2023-01-13T03:52:28.094Z,10.40
2023-01-13T03:55:05.923Z,10.20
2023-01-13T03:58:02.186Z,10.30
2023-01-13T04:00:38.978Z,10.00
2023-01-13T04:03:10.624Z,10.00
2023-01-13T04:05:44.932Z,10.30
2023-01-13T04:08:19.903Z,10.30
2023-01-13T04:10:55.013Z,9.90
2023-01-13T04:13:26.812Z,10.10
2023-01-13T04:15:56.283Z,10.30
2023-01-13T04:18:27.395Z,10.10
2023-01-13T04:21:05.680Z,10.10
2023-01-13T04:23:37.085Z,10.00
2023-01-13T04:26:05.196Z,10.00
2023-01-13T04:28:34.852Z,10.10
2023-01-13T04:31:03.881Z,10.30
2023-01-13T04:33:31.944Z,10.20
2023-01-13T04:36:04.729Z,10.20
2023-01-13T04:38:32.761Z,10.10
2023-01-13T04:41:00.760Z,10.40
2023-01-13T04:43:29.609Z,10.30
2023-01-13T04:45:57.855Z,10.20
2023-01-13T04:48:26.395Z,10.30
2023-01-13T04:50:55.443Z,10.10
2023-01-13T04:53:34.620Z,10.00
2023-01-13T04:56:05.478Z,9.90
2023-01-13T04:58:39.681Z,9.80
2023-01-13T05:01:08.625Z,9.80
2023-01-13T05:03:38.860Z,9.80
2023-01-13T05:06:08.259Z,10.00
2023-01-13T05:08:38.044Z,10.00
2023-01-13T05:11:26.496Z,9.80
2023-01-13T05:14:13.007Z,9.90
2023-01-13T05:16:58.379Z,9.70
2023-01-13T05:19:26.648Z,9.70
2023-01-13T05:22:15.869Z,9.50
2023-01-13T05:25:04.235Z,9.70
2023-01-13T05:27:32.715Z,9.70
2023-01-13T05:30:00.913Z,9.70
2023-01-13T05:32:32.273Z,9.90
2023-01-13T05:35:00.899Z,10.10
2023-01-13T05:37:29.801Z,10.20
2023-01-13T05:40:19.612Z,10.50
2023-01-13T05:43:04.961Z,10.20
2023-01-13T05:45:33.536Z,9.90
2023-01-13T05:48:01.572Z,9.80
2023-01-13T05:50:30.874Z,9.80
2023-01-13T05:53:06.730Z,9.60
2023-01-13T05:55:38.863Z,9.40
2023-01-13T05:58:08.616Z,9.50
2023-01-13T06:00:37.428Z,9.40
2023-01-13T06:03:06.193Z,9.60
2023-01-13T06:05:37.667Z,9.70
2023-01-13T06:08:15.922Z,9.70
2023-01-13T06:10:47.820Z,9.60
2023-01-13T06:13:19.561Z,9.40
2023-01-13T06:15:47.598Z,9.60
2023-01-13T06:18:18.731Z,9.60
2023-01-13T06:20:50.791Z,9.60
2023-01-13T06:23:19.971Z,9.60
2023-01-13T06:25:59.464Z,9.70
2023-01-13T06:28:28.073Z,9.70
2023-01-13T06:30:59.992Z,9.70
2023-01-13T06:33:31.291Z,9.60
2023-01-13T06:36:05.476Z,9.70
2023-01-13T06:38:49.684Z,9.80
2023-01-13T06:41:41.197Z,9.50
2023-01-13T06:44:09.399Z,9.70
2023-01-13T06:46:38.284Z,9.70
2023-01-13T06:49:06.960Z,9.40
2023-01-13T06:51:37.880Z,9.50
2023-01-13T06:54:06.376Z,9.40
2023-01-13T06:56:37.130Z,9.40
2023-01-13T06:59:05.573Z,9.50
2023-01-13T07:01:41.089Z,9.50
2023-01-13T07:04:09.315Z,9.40
2023-01-13T07:06:39.681Z,9.20
2023-01-13T07:09:10.592Z,9.40
2023-01-13T07:11:42.584Z,9.20
2023-01-13T07:14:28.998Z,9.20
2023-01-13T07:16:56.989Z,9.30
2023-01-13T07:19:25.444Z,9.20
2023-01-13T07:21:55.427Z,9.40
2023-01-13T07:24:26.304Z,9.40
2023-01-13T07:26:56.805Z,9.20
2023-01-13T07:29:27.726Z,9.30
2023-01-13T07:31:56.377Z,9.40
2023-01-13T07:34:24.582Z,9.30
2023-01-13T07:36:53.223Z,9.30
2023-01-13T07:39:21.487Z,9.40
2023-01-13T07:42:07.325Z,9.60
2023-01-13T07:44:36.762Z,9.60
2023-01-13T07:47:08.744Z,9.50
2023-01-13T07:49:37.126Z,9.30
2023-01-13T07:52:05.585Z,9.40
2023-01-13T07:54:41.027Z,9.30
2023-01-13T07:57:10.536Z,9.20
2023-01-13T07:59:47.154Z,9.20
2023-01-13T08:02:15.839Z,9.30
2023-01-13T08:04:44.001Z,9.40
2023-01-13T08:07:12.982Z,9.30
2023-01-13T08:09:41.019Z,9.20
2023-01-13T08:12:27.833Z,9.20
2023-01-13T08:14:57.947Z,9.20
2023-01-13T08:17:28.332Z,9.50
2023-01-13T08:19:56.551Z,9.30
2023-01-13T08:22:24.641Z,9.30
2023-01-13T08:24:53.818Z,9.40
2023-01-13T08:27:21.791Z,9.20
2023-01-13T08:29:50.278Z,9.30
2023-01-13T08:32:27.925Z,9.30
2023-01-13T08:34:55.957Z,9.40
2023-01-13T08:37:26.305Z,9.20
2023-01-13T08:39:55.253Z,9.30
2023-01-13T08:42:23.648Z,9.40
2023-01-13T08:44:54.345Z,9.10
2023-01-13T08:47:28.041Z,9.20
2023-01-13T08:49:59.258Z,9.20
2023-01-13T08:52:27.686Z,9.20
2023-01-13T08:54:55.725Z,9.10
2023-01-13T08:57:25.010Z,9.20
2023-01-13T08:59:53.514Z,9.20
2023-01-13T09:02:24.619Z,9.20
2023-01-13T09:04:56.278Z,9.10
2023-01-13T09:07:28.099Z,9.10
2023-01-13T09:09:56.862Z,9.10
2023-01-13T09:12:43.271Z,9.10
2023-01-13T09:15:15.040Z,9.20
2023-01-13T09:17:44.374Z,9.30
2023-01-13T09:20:16.773Z,9.40
2023-01-13T09:22:47.791Z,9.50
2023-01-13T09:25:16.520Z,9.60
2023-01-13T09:27:44.542Z,9.50
2023-01-13T09:30:15.722Z,9.50
2023-01-13T09:32:47.636Z,9.40
2023-01-13T09:35:14.686Z,9.30
2023-01-13T09:37:45.119Z,9.30
2023-01-13T09:40:18.326Z,9.40
2023-01-13T09:43:09.277Z,9.40
2023-01-13T09:45:42.623Z,9.50
2023-01-13T09:48:16.877Z,9.60
2023-01-13T09:50:58.285Z,9.40
2023-01-13T09:53:33.220Z,9.20
2023-01-13T09:56:01.647Z,9.30
2023-01-13T09:58:32.121Z,9.30
2023-01-13T10:01:10.864Z,9.20
2023-01-13T10:03:40.907Z,9.10
2023-01-13T10:06:14.558Z,9.10
2023-01-13T10:08:44.557Z,9.20
2023-01-13T10:11:34.288Z,9.30
2023-01-13T10:14:05.603Z,9.30
2023-01-13T10:16:42.859Z,9.30
2023-01-13T10:19:27.970Z,9.30
2023-01-13T10:22:11.867Z,9.20
2023-01-13T10:25:08.552Z,9.30
2023-01-13T10:27:40.724Z,9.30
2023-01-13T10:30:21.561Z,9.30
2023-01-13T10:32:54.604Z,9.40
2023-01-13T10:35:56.736Z,9.50
2023-01-13T10:38:29.720Z,9.60
2023-01-13T10:41:02.763Z,9.40
2023-01-13T10:43:34.138Z,9.40
2023-01-13T10:46:05.381Z,9.50
2023-01-13T10:48:39.428Z,9.50
2023-01-13T10:51:24.012Z,9.50
2023-01-13T10:53:56.519Z,9.40
2023-01-13T10:56:30.007Z,9.40
2023-01-13T10:59:16.569Z,9.40
2023-01-13T11:01:58.803Z,9.50
2023-01-13T11:04:31.361Z,9.60
2023-01-13T11:07:02.972Z,9.50
2023-01-13T11:09:32.385Z,9.40
2023-01-13T11:12:02.961Z,9.50
2023-01-13T11:14:39.429Z,9.60
2023-01-13T11:17:27.472Z,9.80
2023-01-13T11:20:03.952Z,9.90
2023-01-13T11:22:38.096Z,10.20
2023-01-13T11:25:10.912Z,10.10
2023-01-13T11:27:47.643Z,10.00
2023-01-13T11:30:26.758Z,10.10
2023-01-13T11:33:05.341Z,10.20
2023-01-13T11:35:36.900Z,10.20
2023-01-13T11:38:21.398Z,10.10
2023-01-13T11:40:51.709Z,10.00
2023-01-13T11:43:27.900Z,9.70
2023-01-13T11:45:59.460Z,9.60
2023-01-13T11:48:30.913Z,9.50
2023-01-13T11:51:09.327Z,9.50
2023-01-13T11:53:56.351Z,9.40
2023-01-13T11:56:53.329Z,9.40
2023-01-13T11:59:47.690Z,9.30
2023-01-13T12:02:25.456Z,9.30
2023-01-13T12:05:04.051Z,9.40
2023-01-13T12:07:42.628Z,9.40
2023-01-13T12:10:26.507Z,9.30
2023-01-13T12:13:01.198Z,9.50
2023-01-13T12:16:08.349Z,9.50
2023-01-13T12:19:14.996Z,9.50
2023-01-13T12:22:03.220Z,9.60
2023-01-13T12:24:43.772Z,9.20
2023-01-13T12:27:22.246Z,9.40
2023-01-13T12:29:55.255Z,9.50
2023-01-13T12:32:36.529Z,9.40
2023-01-13T12:35:23.793Z,9.40
2023-01-13T12:37:59.308Z,9.10
2023-01-13T12:40:41.629Z,9.20
2023-01-13T12:43:34.631Z,9.20
2023-01-13T12:46:57.182Z,9.10
2023-01-13T12:49:32.742Z,9.30
2023-01-13T12:52:14.898Z,9.40
2023-01-13T12:55:18.438Z,9.30
2023-01-13T12:58:18.539Z,9.30
2023-01-13T13:01:02.227Z,9.10
2023-01-13T13:03:37.894Z,9.10
2023-01-13T13:06:17.283Z,9.40
2023-01-13T13:08:53.816Z,9.20
2023-01-13T13:11:54.031Z,9.00
2023-01-13T13:15:02.251Z,9.20
2023-01-13T13:17:46.386Z,10.30
2023-01-13T13:20:53.844Z,11.10
2023-01-13T13:24:00.686Z,11.80
2023-01-13T13:26:45.723Z,12.40
2023-01-13T13:29:27.713Z,12.90
2023-01-13T13:32:32.991Z,13.20
2023-01-13T13:35:34.876Z,13.20
2023-01-13T13:38:35.506Z,13.10
2023-01-13T13:41:32.337Z,13.10
2023-01-13T13:44:21.364Z,13.20
2023-01-13T13:46:50.305Z,12.40
2023-01-13T13:49:20.399Z,11.70
2023-01-13T13:51:59.387Z,10.90
2023-01-13T13:54:28.034Z,10.70
2023-01-13T13:56:59.308Z,10.30
2023-01-13T13:59:30.541Z,10.00
2023-01-13T14:02:04.164Z,10.10
2023-01-13T14:04:36.722Z,9.80
2023-01-13T14:07:21.224Z,9.80
2023-01-13T14:09:53.672Z,10.00
2023-01-13T14:12:24.419Z,10.00
2023-01-13T14:14:55.854Z,9.70
2023-01-13T14:17:26.662Z,9.60
2023-01-13T14:19:58.875Z,9.50
2023-01-13T14:22:29.311Z,9.50
2023-01-13T14:24:58.004Z,9.40
2023-01-13T14:27:28.273Z,9.40
2023-01-13T14:29:59.074Z,9.50
2023-01-13T14:32:36.457Z,9.40
2023-01-13T14:35:10.445Z,9.30
2023-01-13T14:37:42.036Z,9.40
2023-01-13T14:40:44.578Z,9.40
2023-01-13T14:43:21.654Z,9.20
2023-01-13T14:45:58.625Z,9.50
2023-01-13T14:48:35.582Z,9.40
2023-01-13T14:51:06.515Z,9.50
2023-01-13T14:53:43.450Z,9.50
2023-01-13T14:56:37.529Z,9.10
2023-01-13T14:59:34.717Z,9.10
2023-01-13T15:02:26.480Z,9.10
2023-01-13T15:04:55.312Z,9.20
2023-01-13T15:07:26.927Z,9.10
2023-01-13T15:10:04.033Z,9.00
2023-01-13T15:12:37.752Z,9.00
2023-01-13T15:15:22.196Z,9.00
2023-01-13T15:17:50.304Z,9.00
2023-01-13T15:20:20.713Z,9.20
2023-01-13T15:22:49.793Z,9.20
2023-01-13T15:25:20.118Z,9.10
2023-01-13T15:27:52.080Z,8.90
2023-01-13T15:30:25.239Z,8.90
2023-01-13T15:32:54.958Z,9.10
2023-01-13T15:35:27.038Z,9.20
2023-01-13T15:37:57.496Z,9.20
2023-01-13T15:40:30.706Z,9.00
2023-01-13T15:43:17.777Z,9.10
2023-01-13T15:46:04.651Z,9.40
2023-01-13T15:48:33.863Z,9.30
2023-01-13T15:51:04.669Z,9.30
2023-01-13T15:53:36.820Z,9.10
2023-01-13T15:56:16.111Z,8.80
2023-01-13T15:58:47.548Z,8.80
2023-01-13T16:01:19.001Z,8.90
2023-01-13T16:03:50.048Z,9.00
2023-01-13T16:06:22.151Z,9.00
2023-01-13T16:08:52.737Z,8.80
2023-01-13T16:11:23.044Z,8.70
2023-01-13T16:13:58.542Z,8.90
2023-01-13T16:16:29.284Z,8.90
2023-01-13T16:18:58.437Z,9.10
2023-01-13T16:21:27.145Z,9.10
2023-01-13T16:23:58.197Z,9.20
2023-01-13T16:26:32.256Z,9.00
2023-01-13T16:29:01.129Z,9.10
2023-01-13T16:31:31.861Z,9.10
2023-01-13T16:34:04.229Z,9.00
2023-01-13T16:36:36.064Z,9.00
2023-01-13T16:39:06.244Z,8.90
2023-01-13T16:41:36.225Z,9.00
2023-01-13T16:44:06.281Z,9.00
2023-01-13T16:46:35.128Z,8.90
2023-01-13T16:49:06.315Z,8.80
2023-01-13T16:51:34.555Z,8.90
2023-01-13T16:54:02.604Z,8.70
2023-01-13T16:56:40.588Z,8.80
2023-01-13T16:59:12.101Z,8.90
2023-01-13T17:01:45.042Z,8.90
2023-01-13T17:04:16.885Z,8.70
2023-01-13T17:06:53.417Z,8.80
2023-01-13T17:09:23.663Z,8.90
2023-01-13T17:11:54.976Z,8.90
2023-01-13T17:14:25.076Z,8.80
2023-01-13T17:16:55.453Z,8.80
2023-01-13T17:19:26.275Z,9.00
2023-01-13T17:21:54.343Z,9.30
2023-01-13T17:24:24.649Z,9.20
2023-01-13T17:26:55.285Z,9.10
2023-01-13T17:29:27.687Z,9.10
2023-01-13T17:31:56.911Z,9.10
2023-01-13T17:34:25.041Z,9.40
2023-01-13T17:36:53.065Z,9.40
2023-01-13T17:39:23.914Z,9.30
2023-01-13T17:41:52.692Z,9.20
2023-01-13T17:47:13.728Z,8.90
2023-01-13T17:49:42.209Z,8.80
2023-01-13T17:52:12.450Z,8.70
2023-01-13T17:54:43.588Z,8.70
2023-01-13T17:57:12.039Z,8.90
2023-01-13T17:59:42.767Z,8.90
2023-01-13T18:02:15.915Z,8.90
2023-01-13T18:04:45.535Z,8.80
2023-01-13T18:07:13.588Z,8.80
2023-01-13T18:09:42.168Z,9.00
2023-01-13T18:14:57.611Z,9.00
2023-01-13T18:17:26.468Z,9.00
2023-01-13T18:20:12.525Z,8.90
2023-01-13T18:23:00.158Z,9.00
2023-01-13T18:25:45.480Z,9.00
2023-01-13T18:28:16.684Z,8.90
2023-01-13T18:30:48.750Z,8.90
2023-01-13T18:33:17.389Z,8.70
2023-01-13T18:35:53.280Z,8.90
2023-01-13T18:38:21.988Z,8.80
2023-01-13T18:40:50.083Z,8.90
2023-01-13T18:43:17.103Z,8.80
2023-01-13T18:45:51.612Z,9.10
2023-01-13T18:48:19.698Z,9.00
2023-01-13T18:50:50.187Z,8.90
2023-01-13T18:53:18.899Z,9.20
2023-01-13T18:55:46.917Z,9.20
2023-01-13T18:58:18.535Z,9.00
2023-01-13T19:00:48.313Z,9.10
2023-01-13T19:03:29.617Z,9.10
2023-01-13T19:06:04.432Z,9.10
2023-01-13T19:08:33.980Z,9.20
2023-01-13T19:11:05.382Z,9.30
2023-01-13T19:13:35.799Z,9.40
2023-01-13T19:16:12.674Z,9.30
2023-01-13T19:18:40.919Z,9.20
2023-01-13T19:21:09.169Z,9.30
2023-01-13T19:23:40.696Z,9.30
2023-01-13T19:26:11.362Z,9.20
2023-01-13T19:28:41.624Z,9.10
2023-01-13T19:31:12.321Z,8.90
2023-01-13T19:33:41.836Z,9.10
2023-01-13T19:36:11.332Z,9.30
2023-01-13T19:38:41.948Z,9.20
2023-01-13T19:41:29.391Z,9.20
2023-01-13T19:44:15.929Z,9.00
2023-01-13T19:46:47.037Z,9.00
2023-01-13T19:49:15.057Z,9.20
2023-01-13T19:51:43.250Z,9.20
2023-01-13T19:54:13.794Z,9.20
2023-01-13T19:56:44.085Z,9.30
2023-01-13T19:59:13.673Z,9.30
2023-01-13T20:01:41.826Z,9.20
2023-01-13T20:04:14.472Z,9.30
2023-01-13T20:06:42.567Z,9.30
2023-01-13T20:09:11.411Z,9.40
2023-01-13T20:11:39.862Z,9.30
2023-01-13T20:14:08.042Z,9.40
2023-01-13T20:16:36.079Z,9.40
2023-01-13T20:19:04.545Z,9.50
2023-01-13T20:21:35.009Z,9.40
2023-01-13T20:24:03.319Z,9.30
2023-01-13T20:26:31.979Z,9.10
2023-01-13T20:29:04.603Z,9.20
2023-01-13T20:31:33.638Z,9.30
2023-01-13T20:34:02.099Z,9.40
2023-01-13T20:36:33.427Z,9.30
2023-01-13T20:39:05.730Z,9.60
2023-01-13T20:41:51.104Z,9.30
2023-01-13T20:44:29.695Z,9.20
2023-01-13T20:46:59.061Z,9.30
2023-01-13T20:49:30.662Z,9.30
2023-01-13T20:51:59.316Z,9.30
2023-01-13T20:54:33.937Z,9.50
2023-01-13T20:57:02.328Z,9.80
2023-01-13T20:59:33.974Z,9.40
2023-01-13T21:02:02.825Z,9.30
2023-01-13T21:04:38.477Z,9.30
2023-01-13T21:07:11.298Z,9.40
2023-01-13T21:09:43.501Z,9.40
2023-01-13T21:12:34.191Z,9.50
2023-01-13T21:15:20.211Z,9.70
2023-01-13T21:18:09.669Z,9.80
2023-01-13T21:20:39.112Z,9.60
2023-01-13T21:23:08.413Z,9.60
2023-01-13T21:25:40.067Z,9.40
2023-01-13T21:28:11.119Z,9.40
2023-01-13T21:30:40.325Z,9.40
2023-01-13T21:33:08.345Z,9.20
2023-01-13T21:35:39.221Z,9.20
2023-01-13T21:38:07.797Z,9.20
2023-01-13T21:40:41.676Z,9.20
2023-01-13T21:43:30.980Z,9.10
2023-01-13T21:46:31.776Z,9.10
2023-01-13T21:49:00.340Z,9.20
2023-01-13T21:51:29.187Z,9.10
2023-01-13T21:54:00.680Z,9.10
2023-01-13T21:56:30.147Z,9.30
2023-01-13T21:58:58.145Z,9.20
2023-01-13T22:01:29.243Z,9.20
2023-01-13T22:04:15.444Z,9.20
2023-01-13T22:06:43.478Z,9.30
2023-01-13T22:09:12.685Z,9.50
2023-01-13T22:11:45.267Z,9.20
2023-01-13T22:14:13.952Z,9.30
2023-01-13T22:16:49.788Z,9.20
2023-01-13T22:19:18.095Z,9.10
2023-01-13T22:21:46.210Z,9.20
2023-01-13T22:24:20.132Z,9.30
2023-01-13T22:26:51.722Z,9.30
2023-01-13T22:29:19.812Z,9.30
2023-01-13T22:31:48.710Z,9.20
2023-01-13T22:34:17.597Z,9.10
2023-01-13T22:36:45.582Z,9.20
2023-01-13T22:39:14.798Z,9.10
2023-01-13T22:41:42.813Z,9.10
2023-01-13T22:44:12.580Z,9.10
2023-01-13T22:46:41.418Z,9.20
2023-01-13T22:49:09.679Z,8.90
2023-01-13T22:51:39.781Z,8.80
2023-01-13T22:54:11.301Z,8.80
2023-01-13T22:56:44.104Z,8.80
2023-01-13T22:59:15.925Z,8.90
2023-01-13T23:01:45.069Z,9.00
2023-01-13T23:04:14.020Z,9.00
2023-01-13T23:06:42.507Z,9.00
2023-01-13T23:09:11.138Z,9.00
2023-01-13T23:11:42.956Z,9.00
2023-01-13T23:14:14.458Z,9.10
2023-01-13T23:16:46.908Z,8.90
2023-01-13T23:19:18.026Z,8.90
2023-01-13T23:21:46.261Z,9.00
2023-01-13T23:24:17.497Z,8.90
2023-01-13T23:26:47.949Z,9.00
2023-01-13T23:29:39.925Z,9.00
2023-01-13T23:32:07.999Z,9.10
2023-01-13T23:34:36.476Z,9.20
2023-01-13T23:37:05.437Z,9.30
2023-01-13T23:39:33.967Z,9.10
2023-01-13T23:42:02.118Z,9.00
2023-01-13T23:44:30.332Z,8.90
2023-01-13T23:47:03.108Z,8.80
2023-01-13T23:49:31.727Z,8.90
2023-01-13T23:51:59.766Z,9.00
2023-01-13T23:54:31.122Z,9.00
2023-01-13T23:57:00.196Z,9.00
2023-01-13T23:59:29.124Z,9.00
